Larchland, Illinois
Current Conditions -  °F | °C
As of 9:35 AM on Saturday 25 Oct 2014 (Local Time) from KGBG Reporting Station
Haze Haze  
Wind Chill: 54°   Ceiling: Unl
Heat Index: 54°   Visibility: 5mi
Dew Point: 54°   Wind: 5mph
Humidity: 99%   Direction: 330°NNW
Pressure: 30.03"   Gusts: NA
Location:  40.8988°N, 90.6511°W
Report Text: KGBG 251435Z AUTO 33004KT 5SM BR SCT002 12/12 A3003 RMK AO2 T01240123
Loading
Personal Weather Stations






























Interactive Weather Map
Tropical Storm Tracking
New forecast layout! Learn more

10-Day Weather Forecast

Advertisements
Track Severe Weather on mobile